sensor_id;sensor_type;location;lat;lon;timestamp;pressure;altitude;pressure_sealevel;temperature;humidity
35489;BME280;21602;55.670;37.578;2023-02-12T00:01:33;97710.91;;;-0.05;97.92
35489;BME280;21602;55.670;37.578;2023-02-12T00:04:01;97708.31;;;-0.12;97.21
35489;BME280;21602;55.670;37.578;2023-02-12T00:06:26;97710.75;;;-0.23;97.48
35489;BME280;21602;55.670;37.578;2023-02-12T00:08:54;97701.28;;;-0.31;97.86
35489;BME280;21602;55.670;37.578;2023-02-12T00:11:23;97716.81;;;-0.43;97.70
35489;BME280;21602;55.670;37.578;2023-02-12T00:13:50;97708.56;;;-0.46;98.07
35489;BME280;21602;55.670;37.578;2023-02-12T00:16:19;97724.69;;;-0.49;97.44
35489;BME280;21602;55.670;37.578;2023-02-12T00:18:46;97731.34;;;-0.54;96.22
35489;BME280;21602;55.670;37.578;2023-02-12T00:21:12;97735.78;;;-0.61;95.25
35489;BME280;21602;55.670;37.578;2023-02-12T00:23:40;97735.16;;;-0.63;95.29
35489;BME280;21602;55.670;37.578;2023-02-12T00:26:07;97763.19;;;-0.70;94.73
35489;BME280;21602;55.670;37.578;2023-02-12T00:28:33;97757.53;;;-0.80;94.94
35489;BME280;21602;55.670;37.578;2023-02-12T00:31:10;97774.84;;;-0.86;95.51
35489;BME280;21602;55.670;37.578;2023-02-12T00:33:36;97770.00;;;-1.02;95.88
35489;BME280;21602;55.670;37.578;2023-02-12T00:36:04;97776.41;;;-1.05;96.05
35489;BME280;21602;55.670;37.578;2023-02-12T00:38:30;97780.03;;;-1.12;96.00
35489;BME280;21602;55.670;37.578;2023-02-12T00:40:56;97788.28;;;-1.15;96.16
35489;BME280;21602;55.670;37.578;2023-02-12T00:43:21;97785.06;;;-1.17;96.94
35489;BME280;21602;55.670;37.578;2023-02-12T00:45:47;97794.09;;;-1.26;96.44
35489;BME280;21602;55.670;37.578;2023-02-12T00:48:15;97786.75;;;-1.44;96.31
35489;BME280;21602;55.670;37.578;2023-02-12T00:50:44;97847.75;;;-1.50;96.39
35489;BME280;21602;55.670;37.578;2023-02-12T00:53:10;97820.53;;;-1.56;97.05
35489;BME280;21602;55.670;37.578;2023-02-12T00:55:36;97837.41;;;-1.59;97.44
35489;BME280;21602;55.670;37.578;2023-02-12T00:58:02;97850.28;;;-1.64;97.92
35489;BME280;21602;55.670;37.578;2023-02-12T01:00:28;97847.69;;;-1.57;97.97
35489;BME280;21602;55.670;37.578;2023-02-12T01:02:56;97853.03;;;-1.72;96.21
35489;BME280;21602;55.670;37.578;2023-02-12T01:05:22;97858.25;;;-1.78;95.49
35489;BME280;21602;55.670;37.578;2023-02-12T01:07:51;97862.03;;;-1.81;96.96
35489;BME280;21602;55.670;37.578;2023-02-12T01:10:18;97883.97;;;-1.82;96.91
35489;BME280;21602;55.670;37.578;2023-02-12T01:12:49;97887.94;;;-1.86;96.78
35489;BME280;21602;55.670;37.578;2023-02-12T01:15:15;97888.16;;;-1.88;96.85
35489;BME280;21602;55.670;37.578;2023-02-12T01:17:41;97868.31;;;-2.03;96.09
35489;BME280;21602;55.670;37.578;2023-02-12T01:20:11;97911.09;;;-2.11;96.54
35489;BME280;21602;55.670;37.578;2023-02-12T01:22:37;97913.47;;;-2.16;97.02
35489;BME280;21602;55.670;37.578;2023-02-12T01:25:04;97912.25;;;-2.14;97.28
35489;BME280;21602;55.670;37.578;2023-02-12T01:27:31;97928.38;;;-2.10;96.79
35489;BME280;21602;55.670;37.578;2023-02-12T01:29:57;97961.56;;;-2.11;95.69
35489;BME280;21602;55.670;37.578;2023-02-12T01:32:23;97947.00;;;-2.20;96.35
35489;BME280;21602;55.670;37.578;2023-02-12T01:34:49;97946.19;;;-2.20;95.38
35489;BME280;21602;55.670;37.578;2023-02-12T01:37:15;97962.53;;;-2.18;95.43
35489;BME280;21602;55.670;37.578;2023-02-12T01:39:41;97980.94;;;-2.26;96.45
35489;BME280;21602;55.670;37.578;2023-02-12T01:42:11;97975.63;;;-2.33;96.07
35489;BME280;21602;55.670;37.578;2023-02-12T01:44:42;97974.00;;;-2.34;95.35
35489;BME280;21602;55.670;37.578;2023-02-12T01:47:16;97998.78;;;-2.30;94.93
35489;BME280;21602;55.670;37.578;2023-02-12T01:49:45;97996.38;;;-2.32;95.13
35489;BME280;21602;55.670;37.578;2023-02-12T01:54:40;97995.41;;;-2.45;94.78
35489;BME280;21602;55.670;37.578;2023-02-12T01:57:07;97995.66;;;-2.40;95.16
35489;BME280;21602;55.670;37.578;2023-02-12T01:59:36;98017.56;;;-2.41;94.28
35489;BME280;21602;55.670;37.578;2023-02-12T02:02:03;98021.97;;;-2.57;94.45
35489;BME280;21602;55.670;37.578;2023-02-12T02:04:35;98031.28;;;-2.54;94.20
35489;BME280;21602;55.670;37.578;2023-02-12T02:07:04;98032.53;;;-2.50;93.99
35489;BME280;21602;55.670;37.578;2023-02-12T02:09:34;98039.81;;;-2.45;93.36
35489;BME280;21602;55.670;37.578;2023-02-12T02:12:00;97983.06;;;-2.51;93.74
35489;BME280;21602;55.670;37.578;2023-02-12T02:14:46;98045.16;;;-2.53;93.18
35489;BME280;21602;55.670;37.578;2023-02-12T02:28:44;98073.00;;;-2.61;92.99
35489;BME280;21602;55.670;37.578;2023-02-12T02:31:25;98107.78;;;-2.75;92.20
35489;BME280;21602;55.670;37.578;2023-02-12T02:33:57;98086.34;;;-2.70;92.18
35489;BME280;21602;55.670;37.578;2023-02-12T02:38:59;98095.06;;;-2.78;92.71
35489;BME280;21602;55.670;37.578;2023-02-12T02:43:56;98116.56;;;-2.76;92.14
35489;BME280;21602;55.670;37.578;2023-02-12T02:46:44;98144.78;;;-2.71;91.63
35489;BME280;21602;55.670;37.578;2023-02-12T02:49:34;98131.28;;;-2.75;91.63
35489;BME280;21602;55.670;37.578;2023-02-12T02:52:09;98163.19;;;-2.65;91.02
35489;BME280;21602;55.670;37.578;2023-02-12T02:54:40;98148.19;;;-2.71;90.79
35489;BME280;21602;55.670;37.578;2023-02-12T02:57:13;98150.47;;;-2.68;91.29
35489;BME280;21602;55.670;37.578;2023-02-12T02:59:42;98189.84;;;-2.69;90.55
35489;BME280;21602;55.670;37.578;2023-02-12T03:02:15;98178.91;;;-2.73;90.93
35489;BME280;21602;55.670;37.578;2023-02-12T03:04:48;98216.00;;;-2.77;90.88
35489;BME280;21602;55.670;37.578;2023-02-12T03:07:20;98187.09;;;-2.76;90.71
35489;BME280;21602;55.670;37.578;2023-02-12T03:09:56;98197.38;;;-2.74;90.44
35489;BME280;21602;55.670;37.578;2023-02-12T03:12:32;98217.47;;;-2.75;90.27
35489;BME280;21602;55.670;37.578;2023-02-12T03:15:08;98193.31;;;-2.77;90.42
35489;BME280;21602;55.670;37.578;2023-02-12T03:17:43;98212.41;;;-2.76;90.54
35489;BME280;21602;55.670;37.578;2023-02-12T03:20:21;98215.84;;;-2.76;90.89
35489;BME280;21602;55.670;37.578;2023-02-12T03:22:54;98245.94;;;-2.80;90.99
35489;BME280;21602;55.670;37.578;2023-02-12T03:25:40;98248.53;;;-2.80;91.05
35489;BME280;21602;55.670;37.578;2023-02-12T03:28:17;98244.00;;;-2.86;91.32
35489;BME280;21602;55.670;37.578;2023-02-12T03:42:06;98270.19;;;-2.94;91.12
35489;BME280;21602;55.670;37.578;2023-02-12T03:49:52;98306.56;;;-3.24;90.95
35489;BME280;21602;55.670;37.578;2023-02-12T03:52:21;98294.16;;;-3.22;90.46
35489;BME280;21602;55.670;37.578;2023-02-12T03:54:47;98266.91;;;-3.19;90.40
35489;BME280;21602;55.670;37.578;2023-02-12T03:57:18;98302.16;;;-3.23;89.49
35489;BME280;21602;55.670;37.578;2023-02-12T03:59:46;98304.44;;;-3.20;89.70
35489;BME280;21602;55.670;37.578;2023-02-12T04:02:14;98280.59;;;-3.17;89.56
35489;BME280;21602;55.670;37.578;2023-02-12T04:04:41;98310.47;;;-3.20;89.09
35489;BME280;21602;55.670;37.578;2023-02-12T04:07:09;98388.66;;;-3.35;88.26
35489;BME280;21602;55.670;37.578;2023-02-12T04:09:35;98337.25;;;-3.26;88.88
35489;BME280;21602;55.670;37.578;2023-02-12T04:12:38;98338.38;;;-3.28;89.06
35489;BME280;21602;55.670;37.578;2023-02-12T04:18:19;98337.59;;;-3.29;88.69
35489;BME280;21602;55.670;37.578;2023-02-12T04:26:48;98415.56;;;-3.26;85.61
35489;BME280;21602;55.670;37.578;2023-02-12T04:29:41;98345.09;;;-3.34;86.25
35489;BME280;21602;55.670;37.578;2023-02-12T04:32:15;98384.91;;;-3.32;86.05
35489;BME280;21602;55.670;37.578;2023-02-12T04:35:04;98391.44;;;-3.36;85.85
35489;BME280;21602;55.670;37.578;2023-02-12T04:37:41;98411.72;;;-3.46;86.04
35489;BME280;21602;55.670;37.578;2023-02-12T04:40:14;98403.69;;;-3.45;85.60
35489;BME280;21602;55.670;37.578;2023-02-12T04:42:46;98406.50;;;-3.46;85.21
35489;BME280;21602;55.670;37.578;2023-02-12T04:45:15;98412.53;;;-3.46;85.57
35489;BME280;21602;55.670;37.578;2023-02-12T04:47:43;98377.13;;;-3.48;84.86
35489;BME280;21602;55.670;37.578;2023-02-12T04:50:09;98442.53;;;-3.42;84.31
35489;BME280;21602;55.670;37.578;2023-02-12T04:52:35;98472.69;;;-3.47;84.06
35489;BME280;21602;55.670;37.578;2023-02-12T04:55:02;98423.78;;;-3.45;84.45
35489;BME280;21602;55.670;37.578;2023-02-12T04:57:28;98463.22;;;-3.40;83.21
35489;BME280;21602;55.670;37.578;2023-02-12T04:59:54;98472.53;;;-3.46;83.19
35489;BME280;21602;55.670;37.578;2023-02-12T05:02:20;98473.66;;;-3.48;82.60
35489;BME280;21602;55.670;37.578;2023-02-12T05:04:48;98469.13;;;-3.46;82.59
35489;BME280;21602;55.670;37.578;2023-02-12T05:07:14;98476.59;;;-3.43;82.51
35489;BME280;21602;55.670;37.578;2023-02-12T05:09:41;98483.13;;;-3.47;82.52
35489;BME280;21602;55.670;37.578;2023-02-12T05:12:07;98462.91;;;-3.45;82.31
35489;BME280;21602;55.670;37.578;2023-02-12T05:14:33;98491.44;;;-3.52;82.36
35489;BME280;21602;55.670;37.578;2023-02-12T05:16:59;98502.38;;;-3.48;82.21
35489;BME280;21602;55.670;37.578;2023-02-12T05:19:24;98509.88;;;-3.45;82.21
35489;BME280;21602;55.670;37.578;2023-02-12T05:21:50;98504.81;;;-3.47;83.02
35489;BME280;21602;55.670;37.578;2023-02-12T05:24:16;98509.69;;;-3.52;83.72
35489;BME280;21602;55.670;37.578;2023-02-12T05:26:42;98529.94;;;-3.54;84.69
35489;BME280;21602;55.670;37.578;2023-02-12T05:29:08;98521.97;;;-3.61;85.06
35489;BME280;21602;55.670;37.578;2023-02-12T05:31:34;98545.09;;;-3.57;85.16
35489;BME280;21602;55.670;37.578;2023-02-12T05:34:01;98551.94;;;-3.56;85.14
35489;BME280;21602;55.670;37.578;2023-02-12T05:36:27;98544.78;;;-3.54;85.19
35489;BME280;21602;55.670;37.578;2023-02-12T05:38:56;98556.66;;;-3.52;85.05
35489;BME280;21602;55.670;37.578;2023-02-12T05:41:23;98553.41;;;-3.54;84.51
35489;BME280;21602;55.670;37.578;2023-02-12T05:43:50;98587.81;;;-3.67;84.48
35489;BME280;21602;55.670;37.578;2023-02-12T05:46:17;98555.50;;;-3.66;85.34
35489;BME280;21602;55.670;37.578;2023-02-12T05:48:43;98570.22;;;-3.65;84.81
35489;BME280;21602;55.670;37.578;2023-02-12T05:51:13;98589.41;;;-3.66;84.37
35489;BME280;21602;55.670;37.578;2023-02-12T05:53:40;98569.22;;;-3.72;85.05
35489;BME280;21602;55.670;37.578;2023-02-12T05:56:15;98596.28;;;-3.73;85.42
35489;BME280;21602;55.670;37.578;2023-02-12T05:58:44;98592.22;;;-3.67;85.10
35489;BME280;21602;55.670;37.578;2023-02-12T06:01:13;98597.41;;;-3.67;85.54
35489;BME280;21602;55.670;37.578;2023-02-12T06:03:39;98618.13;;;-3.74;84.01
35489;BME280;21602;55.670;37.578;2023-02-12T06:06:05;98614.16;;;-3.94;85.01
35489;BME280;21602;55.670;37.578;2023-02-12T06:08:31;98618.41;;;-3.85;85.25
35489;BME280;21602;55.670;37.578;2023-02-12T06:11:06;98608.31;;;-3.80;84.75
35489;BME280;21602;55.670;37.578;2023-02-12T06:13:32;98633.41;;;-3.87;84.23
35489;BME280;21602;55.670;37.578;2023-02-12T06:15:59;98638.97;;;-3.82;84.57
35489;BME280;21602;55.670;37.578;2023-02-12T06:18:25;98663.75;;;-3.78;84.61
35489;BME280;21602;55.670;37.578;2023-02-12T06:20:51;98647.09;;;-3.93;84.00
35489;BME280;21602;55.670;37.578;2023-02-12T06:23:22;98640.09;;;-3.93;83.68
35489;BME280;21602;55.670;37.578;2023-02-12T06:25:49;98648.03;;;-3.94;83.66
35489;BME280;21602;55.670;37.578;2023-02-12T06:28:16;98674.00;;;-3.84;83.41
35489;BME280;21602;55.670;37.578;2023-02-12T06:30:42;98678.25;;;-3.75;83.03
35489;BME280;21602;55.670;37.578;2023-02-12T06:33:08;98695.69;;;-3.76;82.21
35489;BME280;21602;55.670;37.578;2023-02-12T06:35:35;98706.63;;;-3.72;81.94
35489;BME280;21602;55.670;37.578;2023-02-12T06:38:01;98709.88;;;-3.78;81.03
35489;BME280;21602;55.670;37.578;2023-02-12T06:40:27;98716.56;;;-3.84;80.65
35489;BME280;21602;55.670;37.578;2023-02-12T06:42:53;98727.13;;;-3.86;81.18
35489;BME280;21602;55.670;37.578;2023-02-12T06:45:18;98722.25;;;-3.89;81.10
35489;BME280;21602;55.670;37.578;2023-02-12T06:47:44;98711.31;;;-3.92;81.01
35489;BME280;21602;55.670;37.578;2023-02-12T06:50:10;98718.44;;;-3.94;80.49
35489;BME280;21602;55.670;37.578;2023-02-12T06:52:36;98727.59;;;-3.90;80.46
35489;BME280;21602;55.670;37.578;2023-02-12T06:55:02;98748.09;;;-3.95;79.76
35489;BME280;21602;55.670;37.578;2023-02-12T06:57:29;98757.38;;;-4.01;79.85
35489;BME280;21602;55.670;37.578;2023-02-12T06:59:55;98744.16;;;-3.99;80.17
35489;BME280;21602;55.670;37.578;2023-02-12T07:02:21;98755.28;;;-3.97;79.78
35489;BME280;21602;55.670;37.578;2023-02-12T07:04:48;98764.19;;;-4.08;79.40
35489;BME280;21602;55.670;37.578;2023-02-12T07:07:14;98751.28;;;-4.09;79.89
35489;BME280;21602;55.670;37.578;2023-02-12T07:09:46;98769.03;;;-4.13;79.64
35489;BME280;21602;55.670;37.578;2023-02-12T07:12:12;98783.84;;;-4.14;79.53
35489;BME280;21602;55.670;37.578;2023-02-12T07:14:38;98789.13;;;-4.05;79.96
35489;BME280;21602;55.670;37.578;2023-02-12T07:17:04;98772.47;;;-4.13;79.73
35489;BME280;21602;55.670;37.578;2023-02-12T07:19:32;98737.25;;;-4.17;78.72
35489;BME280;21602;55.670;37.578;2023-02-12T07:21:58;98785.16;;;-4.18;79.01
35489;BME280;21602;55.670;37.578;2023-02-12T07:24:24;98786.78;;;-4.17;78.61
35489;BME280;21602;55.670;37.578;2023-02-12T07:26:49;98808.91;;;-4.21;78.05
35489;BME280;21602;55.670;37.578;2023-02-12T07:29:15;98808.53;;;-4.26;78.21
35489;BME280;21602;55.670;37.578;2023-02-12T07:31:42;98803.41;;;-4.18;78.39
35489;BME280;21602;55.670;37.578;2023-02-12T07:34:09;98822.47;;;-4.09;77.80
35489;BME280;21602;55.670;37.578;2023-02-12T07:36:36;98813.59;;;-4.24;77.79
35489;BME280;21602;55.670;37.578;2023-02-12T07:39:02;98819.16;;;-4.19;77.86
35489;BME280;21602;55.670;37.578;2023-02-12T07:41:33;98840.47;;;-4.24;77.45
35489;BME280;21602;55.670;37.578;2023-02-12T07:44:05;98827.31;;;-4.22;77.71
35489;BME280;21602;55.670;37.578;2023-02-12T07:46:35;98827.88;;;-4.28;77.50
35489;BME280;21602;55.670;37.578;2023-02-12T07:49:03;98831.09;;;-4.17;76.68
35489;BME280;21602;55.670;37.578;2023-02-12T07:51:31;98852.75;;;-4.16;75.44
35489;BME280;21602;55.670;37.578;2023-02-12T07:53:58;98837.63;;;-4.13;76.02
35489;BME280;21602;55.670;37.578;2023-02-12T07:56:30;98850.31;;;-4.18;76.21
35489;BME280;21602;55.670;37.578;2023-02-12T07:58:59;98850.81;;;-4.14;76.09
35489;BME280;21602;55.670;37.578;2023-02-12T08:01:35;98863.47;;;-4.19;76.03
35489;BME280;21602;55.670;37.578;2023-02-12T08:04:03;98860.75;;;-4.18;76.00
35489;BME280;21602;55.670;37.578;2023-02-12T08:06:31;98860.41;;;-4.15;75.94
35489;BME280;21602;55.670;37.578;2023-02-12T08:08:59;98867.78;;;-4.10;75.73
35489;BME280;21602;55.670;37.578;2023-02-12T08:11:28;98878.38;;;-4.12;75.60
35489;BME280;21602;55.670;37.578;2023-02-12T08:13:55;98909.50;;;-4.10;75.17
35489;BME280;21602;55.670;37.578;2023-02-12T08:16:23;98897.34;;;-4.19;75.59
35489;BME280;21602;55.670;37.578;2023-02-12T08:18:50;98908.97;;;-4.14;76.14
35489;BME280;21602;55.670;37.578;2023-02-12T08:21:20;98906.00;;;-4.19;75.16
35489;BME280;21602;55.670;37.578;2023-02-12T08:23:47;98912.72;;;-4.16;75.46
35489;BME280;21602;55.670;37.578;2023-02-12T08:28:51;98926.09;;;-4.11;74.85
35489;BME280;21602;55.670;37.578;2023-02-12T08:31:21;98922.69;;;-4.12;75.21
35489;BME280;21602;55.670;37.578;2023-02-12T08:33:48;98904.88;;;-4.16;74.18
35489;BME280;21602;55.670;37.578;2023-02-12T08:36:21;98929.81;;;-4.14;74.16
35489;BME280;21602;55.670;37.578;2023-02-12T08:38:47;98929.91;;;-4.05;74.23
35489;BME280;21602;55.670;37.578;2023-02-12T08:41:18;98896.53;;;-4.20;74.52
35489;BME280;21602;55.670;37.578;2023-02-12T08:43:45;98933.03;;;-4.20;75.03
35489;BME280;21602;55.670;37.578;2023-02-12T08:46:15;98922.88;;;-4.05;75.22
35489;BME280;21602;55.670;37.578;2023-02-12T08:48:42;98956.50;;;-4.20;72.93
35489;BME280;21602;55.670;37.578;2023-02-12T08:51:14;98947.13;;;-4.13;73.92
35489;BME280;21602;55.670;37.578;2023-02-12T08:53:51;98942.84;;;-4.14;74.15
35489;BME280;21602;55.670;37.578;2023-02-12T08:56:17;98946.88;;;-4.01;73.50
35489;BME280;21602;55.670;37.578;2023-02-12T08:58:44;98924.06;;;-3.99;73.11
35489;BME280;21602;55.670;37.578;2023-02-12T09:01:13;98950.66;;;-4.14;73.20
35489;BME280;21602;55.670;37.578;2023-02-12T09:03:41;98942.66;;;-4.02;73.34
35489;BME280;21602;55.670;37.578;2023-02-12T09:06:11;98956.25;;;-3.91;72.71
35489;BME280;21602;55.670;37.578;2023-02-12T09:08:38;98970.44;;;-3.93;72.03
35489;BME280;21602;55.670;37.578;2023-02-12T09:11:16;98970.34;;;-4.01;71.17
35489;BME280;21602;55.670;37.578;2023-02-12T09:13:45;98989.56;;;-4.02;71.58
35489;BME280;21602;55.670;37.578;2023-02-12T09:16:13;98993.97;;;-4.03;71.57
35489;BME280;21602;55.670;37.578;2023-02-12T09:18:39;98961.63;;;-4.10;71.86
35489;BME280;21602;55.670;37.578;2023-02-12T09:21:08;98993.66;;;-4.00;71.42
35489;BME280;21602;55.670;37.578;2023-02-12T09:23:35;98966.25;;;-4.04;71.08
35489;BME280;21602;55.670;37.578;2023-02-12T09:26:09;99012.56;;;-4.16;70.43
35489;BME280;21602;55.670;37.578;2023-02-12T09:28:36;99002.06;;;-4.24;69.59
35489;BME280;21602;55.670;37.578;2023-02-12T09:31:23;99008.53;;;-4.28;70.06
35489;BME280;21602;55.670;37.578;2023-02-12T09:33:51;98943.16;;;-4.34;69.74
35489;BME280;21602;55.670;37.578;2023-02-12T09:36:17;99019.94;;;-4.29;69.44
35489;BME280;21602;55.670;37.578;2023-02-12T09:38:43;98996.31;;;-4.27;70.17
35489;BME280;21602;55.670;37.578;2023-02-12T09:52:15;99015.25;;;-3.72;69.78
35489;BME280;21602;55.670;37.578;2023-02-12T09:54:41;99013.91;;;-3.76;69.62
35489;BME280;21602;55.670;37.578;2023-02-12T09:57:32;99019.84;;;-3.66;68.53
35489;BME280;21602;55.670;37.578;2023-02-12T10:02:41;99043.56;;;-3.95;68.80
35489;BME280;21602;55.670;37.578;2023-02-12T10:05:25;99035.81;;;-3.87;68.98
35489;BME280;21602;55.670;37.578;2023-02-12T10:11:18;99030.41;;;-3.93;68.60
35489;BME280;21602;55.670;37.578;2023-02-12T10:16:41;99038.66;;;-3.80;68.64
35489;BME280;21602;55.670;37.578;2023-02-12T10:21:58;98982.56;;;-3.84;68.31
35489;BME280;21602;55.670;37.578;2023-02-12T10:27:13;99057.38;;;-4.02;68.44
35489;BME280;21602;55.670;37.578;2023-02-12T10:29:42;99050.56;;;-4.13;68.61
35489;BME280;21602;55.670;37.578;2023-02-12T10:32:19;99047.22;;;-4.05;68.99
35489;BME280;21602;55.670;37.578;2023-02-12T10:34:47;99058.34;;;-4.03;69.34
35489;BME280;21602;55.670;37.578;2023-02-12T10:37:36;99073.25;;;-3.78;68.87
35489;BME280;21602;55.670;37.578;2023-02-12T10:40:20;99075.19;;;-3.62;68.25
35489;BME280;21602;55.670;37.578;2023-02-12T10:42:49;99080.25;;;-3.61;68.43
35489;BME280;21602;55.670;37.578;2023-02-12T10:45:37;99074.66;;;-3.66;68.18
35489;BME280;21602;55.670;37.578;2023-02-12T10:48:22;99074.19;;;-3.61;68.27
35489;BME280;21602;55.670;37.578;2023-02-12T10:53:35;99075.19;;;-3.62;68.33
35489;BME280;21602;55.670;37.578;2023-02-12T11:03:57;99095.59;;;-3.22;67.92
35489;BME280;21602;55.670;37.578;2023-02-12T11:06:30;99096.00;;;-3.08;67.54
35489;BME280;21602;55.670;37.578;2023-02-12T11:08:57;99111.97;;;-3.12;67.96
35489;BME280;21602;55.670;37.578;2023-02-12T11:11:28;99105.91;;;-2.94;68.20
35489;BME280;21602;55.670;37.578;2023-02-12T11:13:59;99110.38;;;-3.04;67.81
35489;BME280;21602;55.670;37.578;2023-02-12T11:19:00;99106.94;;;-3.49;68.10
35489;BME280;21602;55.670;37.578;2023-02-12T11:21:26;99117.81;;;-3.53;68.72
35489;BME280;21602;55.670;37.578;2023-02-12T11:23:52;99133.84;;;-3.48;68.90
35489;BME280;21602;55.670;37.578;2023-02-12T11:29:00;99139.34;;;-3.51;68.81
35489;BME280;21602;55.670;37.578;2023-02-12T11:31:28;99142.44;;;-3.56;68.56
35489;BME280;21602;55.670;37.578;2023-02-12T11:34:11;99144.81;;;-3.63;68.89
35489;BME280;21602;55.670;37.578;2023-02-12T11:36:44;99149.47;;;-3.66;69.00
35489;BME280;21602;55.670;37.578;2023-02-12T11:39:31;99148.38;;;-3.64;68.44
35489;BME280;21602;55.670;37.578;2023-02-12T11:42:15;99159.41;;;-3.70;68.35
35489;BME280;21602;55.670;37.578;2023-02-12T11:44:49;99202.78;;;-3.69;68.42
35489;BME280;21602;55.670;37.578;2023-02-12T11:47:27;99159.03;;;-3.75;68.45
35489;BME280;21602;55.670;37.578;2023-02-12T11:50:25;99167.53;;;-3.73;68.76
35489;BME280;21602;55.670;37.578;2023-02-12T11:52:57;99155.59;;;-3.75;68.94
35489;BME280;21602;55.670;37.578;2023-02-12T11:55:26;99178.50;;;-3.69;69.14
35489;BME280;21602;55.670;37.578;2023-02-12T11:57:54;99175.38;;;-3.55;69.36
35489;BME280;21602;55.670;37.578;2023-02-12T12:00:36;99180.38;;;-3.44;69.33
35489;BME280;21602;55.670;37.578;2023-02-12T12:05:38;99187.09;;;-3.41;69.55
35489;BME280;21602;55.670;37.578;2023-02-12T12:08:13;99196.34;;;-3.29;70.01
35489;BME280;21602;55.670;37.578;2023-02-12T12:10:46;99200.91;;;-3.13;69.82
35489;BME280;21602;55.670;37.578;2023-02-12T12:13:22;99213.56;;;-3.00;70.03
35489;BME280;21602;55.670;37.578;2023-02-12T12:15:56;99195.97;;;-2.98;70.11
35489;BME280;21602;55.670;37.578;2023-02-12T12:18:49;99216.19;;;-3.00;69.03
35489;BME280;21602;55.670;37.578;2023-02-12T12:27:03;99238.19;;;-3.39;69.32
35489;BME280;21602;55.670;37.578;2023-02-12T12:29:57;99242.84;;;-3.42;69.50
35489;BME280;21602;55.670;37.578;2023-02-12T12:32:29;99256.41;;;-3.56;69.49
35489;BME280;21602;55.670;37.578;2023-02-12T12:34:56;99256.41;;;-3.56;69.86
35489;BME280;21602;55.670;37.578;2023-02-12T12:40:22;99239.47;;;-3.70;70.62
35489;BME280;21602;55.670;37.578;2023-02-12T12:43:10;99260.28;;;-3.61;70.67
35489;BME280;21602;55.670;37.578;2023-02-12T12:48:29;99276.72;;;-3.50;70.07
35489;BME280;21602;55.670;37.578;2023-02-12T12:59:36;99297.97;;;-3.45;70.59
35489;BME280;21602;55.670;37.578;2023-02-12T13:21:17;99326.06;;;-4.14;72.20
35489;BME280;21602;55.670;37.578;2023-02-12T13:24:03;99320.59;;;-4.10;71.87
35489;BME280;21602;55.670;37.578;2023-02-12T13:31:48;99314.56;;;-4.21;71.79
35489;BME280;21602;55.670;37.578;2023-02-12T13:34:16;99336.09;;;-4.28;72.37
35489;BME280;21602;55.670;37.578;2023-02-12T13:36:44;99346.41;;;-4.27;72.63
35489;BME280;21602;55.670;37.578;2023-02-12T13:41:39;99363.94;;;-4.09;72.40
35489;BME280;21602;55.670;37.578;2023-02-12T13:44:18;99347.31;;;-4.08;72.35
35489;BME280;21602;55.670;37.578;2023-02-12T13:46:55;99351.28;;;-4.04;72.42
35489;BME280;21602;55.670;37.578;2023-02-12T13:52:36;99358.97;;;-3.93;72.18
35489;BME280;21602;55.670;37.578;2023-02-12T13:55:28;99347.56;;;-3.92;72.14
35489;BME280;21602;55.670;37.578;2023-02-12T14:01:04;99374.63;;;-3.93;72.05
35489;BME280;21602;55.670;37.578;2023-02-12T14:03:34;99359.13;;;-4.04;72.33
35489;BME280;21602;55.670;37.578;2023-02-12T14:08:39;99373.53;;;-4.00;72.63
35489;BME280;21602;55.670;37.578;2023-02-12T14:11:18;99379.84;;;-4.03;72.21
35489;BME280;21602;55.670;37.578;2023-02-12T14:14:03;99373.13;;;-4.05;72.47
35489;BME280;21602;55.670;37.578;2023-02-12T14:22:02;99384.38;;;-4.05;72.68
35489;BME280;21602;55.670;37.578;2023-02-12T14:27:05;99390.56;;;-4.16;72.88
35489;BME280;21602;55.670;37.578;2023-02-12T14:30:03;99404.56;;;-4.17;73.25
35489;BME280;21602;55.670;37.578;2023-02-12T14:40:52;99428.03;;;-4.36;74.27
35489;BME280;21602;55.670;37.578;2023-02-12T14:46:59;99431.47;;;-4.35;74.65
35489;BME280;21602;55.670;37.578;2023-02-12T14:49:41;99439.13;;;-4.34;74.47
35489;BME280;21602;55.670;37.578;2023-02-12T15:03:12;99447.63;;;-4.42;75.63
35489;BME280;21602;55.670;37.578;2023-02-12T15:05:41;99445.84;;;-4.41;75.88
35489;BME280;21602;55.670;37.578;2023-02-12T15:10:52;99433.66;;;-4.41;76.14
35489;BME280;21602;55.670;37.578;2023-02-12T15:16:10;99481.47;;;-4.51;76.67
35489;BME280;21602;55.670;37.578;2023-02-12T15:18:58;99493.59;;;-4.41;76.59
35489;BME280;21602;55.670;37.578;2023-02-12T15:21:30;99475.59;;;-4.44;76.39
35489;BME280;21602;55.670;37.578;2023-02-12T15:24:09;99480.41;;;-4.39;76.51
35489;BME280;21602;55.670;37.578;2023-02-12T15:26:58;99507.31;;;-4.29;76.39
35489;BME280;21602;55.670;37.578;2023-02-12T15:32:04;99501.84;;;-4.26;76.36
35489;BME280;21602;55.670;37.578;2023-02-12T15:34:33;99491.50;;;-4.37;76.71
35489;BME280;21602;55.670;37.578;2023-02-12T15:37:03;99496.59;;;-4.45;76.86
35489;BME280;21602;55.670;37.578;2023-02-12T15:39:44;99500.56;;;-4.51;77.06
35489;BME280;21602;55.670;37.578;2023-02-12T15:42:34;99505.22;;;-4.54;77.39
35489;BME280;21602;55.670;37.578;2023-02-12T15:45:16;99503.28;;;-4.52;77.10
35489;BME280;21602;55.670;37.578;2023-02-12T15:47:45;99508.25;;;-4.49;76.98
35489;BME280;21602;55.670;37.578;2023-02-12T15:50:19;99511.66;;;-4.49;76.94
35489;BME280;21602;55.670;37.578;2023-02-12T15:52:48;99520.03;;;-4.45;76.75
35489;BME280;21602;55.670;37.578;2023-02-12T15:55:24;99502.34;;;-4.42;76.39
35489;BME280;21602;55.670;37.578;2023-02-12T15:57:56;99512.66;;;-4.40;76.50
35489;BME280;21602;55.670;37.578;2023-02-12T16:00:40;99518.97;;;-4.33;76.41
35489;BME280;21602;55.670;37.578;2023-02-12T16:03:25;99511.28;;;-4.25;76.11
35489;BME280;21602;55.670;37.578;2023-02-12T16:05:55;99514.88;;;-4.26;76.05
35489;BME280;21602;55.670;37.578;2023-02-12T16:08:23;99513.91;;;-4.25;76.05
35489;BME280;21602;55.670;37.578;2023-02-12T16:10:52;99525.56;;;-4.29;75.91
35489;BME280;21602;55.670;37.578;2023-02-12T16:13:33;99516.78;;;-4.18;75.96
35489;BME280;21602;55.670;37.578;2023-02-12T16:16:07;99515.16;;;-4.19;75.78